sensor_id;sensor_type;location;lat;lon;timestamp;P1;P2;P0
64114;PMS5003;62188;35.640;139.748;2023-05-10T00:00:59;21;20;
64114;PMS5003;62188;35.640;139.748;2023-05-10T00:03:24;26;24;
64114;PMS5003;62188;35.640;139.748;2023-05-10T00:05:49;27;26;
64114;PMS5003;62188;35.640;139.748;2023-05-10T00:08:15;22;21;
64114;PMS5003;62188;35.640;139.748;2023-05-10T00:10:40;26;26;
64114;PMS5003;62188;35.640;139.748;2023-05-10T00:13:06;29;28;
64114;PMS5003;62188;35.640;139.748;2023-05-10T00:15:31;27;27;
64114;PMS5003;62188;35.640;139.748;2023-05-10T00:17:57;24;23;
64114;PMS5003;62188;35.640;139.748;2023-05-10T00:20:22;27;25;
64114;PMS5003;62188;35.640;139.748;2023-05-10T00:22:47;24;24;
64114;PMS5003;62188;35.640;139.748;2023-05-10T00:25:12;29;27;
64114;PMS5003;62188;35.640;139.748;2023-05-10T00:27:38;25;24;
64114;PMS5003;62188;35.640;139.748;2023-05-10T00:30:03;28;27;
64114;PMS5003;62188;35.640;139.748;2023-05-10T00:32:29;29;28;
64114;PMS5003;62188;35.640;139.748;2023-05-10T00:34:54;28;28;
64114;PMS5003;62188;35.640;139.748;2023-05-10T00:37:19;29;27;
64114;PMS5003;62188;35.640;139.748;2023-05-10T00:39:45;28;26;
64114;PMS5003;62188;35.640;139.748;2023-05-10T00:42:10;28;28;
64114;PMS5003;62188;35.640;139.748;2023-05-10T00:44:35;27;26;
64114;PMS5003;62188;35.640;139.748;2023-05-10T00:47:01;29;29;
64114;PMS5003;62188;35.640;139.748;2023-05-10T00:49:26;30;29;
64114;PMS5003;62188;35.640;139.748;2023-05-10T00:51:52;27;26;
64114;PMS5003;62188;35.640;139.748;2023-05-10T00:54:18;31;30;
64114;PMS5003;62188;35.640;139.748;2023-05-10T00:56:43;30;29;
64114;PMS5003;62188;35.640;139.748;2023-05-10T00:59:08;27;27;
64114;PMS5003;62188;35.640;139.748;2023-05-10T01:01:34;26;26;
64114;PMS5003;62188;35.640;139.748;2023-05-10T01:03:59;27;27;
64114;PMS5003;62188;35.640;139.748;2023-05-10T01:06:25;31;30;
64114;PMS5003;62188;35.640;139.748;2023-05-10T01:08:50;30;27;
64114;PMS5003;62188;35.640;139.748;2023-05-10T01:11:15;33;32;
64114;PMS5003;62188;35.640;139.748;2023-05-10T01:13:41;29;28;
64114;PMS5003;62188;35.640;139.748;2023-05-10T01:16:06;33;32;
64114;PMS5003;62188;35.640;139.748;2023-05-10T01:18:32;27;27;
64114;PMS5003;62188;35.640;139.748;2023-05-10T01:21:01;31;31;
64114;PMS5003;62188;35.640;139.748;2023-05-10T01:23:30;30;26;
64114;PMS5003;62188;35.640;139.748;2023-05-10T01:28:17;29;29;
64114;PMS5003;62188;35.640;139.748;2023-05-10T01:33:06;29;26;
64114;PMS5003;62188;35.640;139.748;2023-05-10T01:35:30;30;29;
64114;PMS5003;62188;35.640;139.748;2023-05-10T01:37:57;29;26;
64114;PMS5003;62188;35.640;139.748;2023-05-10T01:40:22;30;30;
64114;PMS5003;62188;35.640;139.748;2023-05-10T01:42:46;25;24;
64114;PMS5003;62188;35.640;139.748;2023-05-10T01:45:12;28;28;
64114;PMS5003;62188;35.640;139.748;2023-05-10T01:47:37;29;28;
64114;PMS5003;62188;35.640;139.748;2023-05-10T01:50:02;27;26;
64114;PMS5003;62188;35.640;139.748;2023-05-10T01:52:30;33;31;
64114;PMS5003;62188;35.640;139.748;2023-05-10T01:54:53;30;30;
64114;PMS5003;62188;35.640;139.748;2023-05-10T01:57:18;27;26;
64114;PMS5003;62188;35.640;139.748;2023-05-10T01:59:44;32;31;
64114;PMS5003;62188;35.640;139.748;2023-05-10T02:02:09;27;26;
64114;PMS5003;62188;35.640;139.748;2023-05-10T02:04:35;31;31;
64114;PMS5003;62188;35.640;139.748;2023-05-10T02:07:00;27;27;
64114;PMS5003;62188;35.640;139.748;2023-05-10T02:09:25;29;27;
64114;PMS5003;62188;35.640;139.748;2023-05-10T02:11:51;28;27;
64114;PMS5003;62188;35.640;139.748;2023-05-10T02:14:17;33;30;
64114;PMS5003;62188;35.640;139.748;2023-05-10T02:16:42;29;27;
64114;PMS5003;62188;35.640;139.748;2023-05-10T02:19:08;32;29;
64114;PMS5003;62188;35.640;139.748;2023-05-10T02:21:34;28;27;
64114;PMS5003;62188;35.640;139.748;2023-05-10T02:23:59;35;34;
64114;PMS5003;62188;35.640;139.748;2023-05-10T02:26:24;31;31;
64114;PMS5003;62188;35.640;139.748;2023-05-10T02:28:50;32;30;
64114;PMS5003;62188;35.640;139.748;2023-05-10T02:31:16;29;26;
64114;PMS5003;62188;35.640;139.748;2023-05-10T02:33:41;34;33;
64114;PMS5003;62188;35.640;139.748;2023-05-10T02:36:07;32;31;
64114;PMS5003;62188;35.640;139.748;2023-05-10T02:38:32;31;31;
64114;PMS5003;62188;35.640;139.748;2023-05-10T02:40:58;31;30;
64114;PMS5003;62188;35.640;139.748;2023-05-10T02:43:23;34;33;
64114;PMS5003;62188;35.640;139.748;2023-05-10T02:45:49;30;29;
64114;PMS5003;62188;35.640;139.748;2023-05-10T02:48:15;32;31;
64114;PMS5003;62188;35.640;139.748;2023-05-10T02:50:40;32;31;
64114;PMS5003;62188;35.640;139.748;2023-05-10T02:53:06;38;38;
64114;PMS5003;62188;35.640;139.748;2023-05-10T02:55:32;39;36;
64114;PMS5003;62188;35.640;139.748;2023-05-10T02:57:57;32;32;
64114;PMS5003;62188;35.640;139.748;2023-05-10T03:00:22;34;34;
64114;PMS5003;62188;35.640;139.748;2023-05-10T03:02:47;33;30;
64114;PMS5003;62188;35.640;139.748;2023-05-10T03:05:12;34;33;
64114;PMS5003;62188;35.640;139.748;2023-05-10T03:07:37;31;30;
64114;PMS5003;62188;35.640;139.748;2023-05-10T03:10:03;35;34;
64114;PMS5003;62188;35.640;139.748;2023-05-10T03:12:31;39;36;
64114;PMS5003;62188;35.640;139.748;2023-05-10T03:14:56;33;32;
64114;PMS5003;62188;35.640;139.748;2023-05-10T03:17:25;37;35;
64114;PMS5003;62188;35.640;139.748;2023-05-10T03:19:46;36;35;
64114;PMS5003;62188;35.640;139.748;2023-05-10T03:22:10;37;35;
64114;PMS5003;62188;35.640;139.748;2023-05-10T03:24:35;31;30;
64114;PMS5003;62188;35.640;139.748;2023-05-10T03:27:01;36;34;
64114;PMS5003;62188;35.640;139.748;2023-05-10T03:29:26;27;27;
64114;PMS5003;62188;35.640;139.748;2023-05-10T03:31:52;33;32;
64114;PMS5003;62188;35.640;139.748;2023-05-10T03:36:43;34;33;
64114;PMS5003;62188;35.640;139.748;2023-05-10T03:39:09;34;33;
64114;PMS5003;62188;35.640;139.748;2023-05-10T03:41:35;34;32;
64114;PMS5003;62188;35.640;139.748;2023-05-10T03:44:00;30;29;
64114;PMS5003;62188;35.640;139.748;2023-05-10T03:46:26;30;30;
64114;PMS5003;62188;35.640;139.748;2023-05-10T03:48:52;31;30;
64114;PMS5003;62188;35.640;139.748;2023-05-10T03:51:17;31;30;
64114;PMS5003;62188;35.640;139.748;2023-05-10T03:53:43;30;29;
64114;PMS5003;62188;35.640;139.748;2023-05-10T03:56:08;31;27;
64114;PMS5003;62188;35.640;139.748;2023-05-10T03:58:33;29;27;
64114;PMS5003;62188;35.640;139.748;2023-05-10T04:00:59;29;28;
64114;PMS5003;62188;35.640;139.748;2023-05-10T04:03:24;29;29;
64114;PMS5003;62188;35.640;139.748;2023-05-10T04:05:49;29;26;
64114;PMS5003;62188;35.640;139.748;2023-05-10T04:08:14;30;28;
64114;PMS5003;62188;35.640;139.748;2023-05-10T04:10:40;30;29;
64114;PMS5003;62188;35.640;139.748;2023-05-10T04:13:05;30;28;
64114;PMS5003;62188;35.640;139.748;2023-05-10T04:15:32;26;26;
64114;PMS5003;62188;35.640;139.748;2023-05-10T04:17:56;28;28;
64114;PMS5003;62188;35.640;139.748;2023-05-10T04:20:21;29;27;
64114;PMS5003;62188;35.640;139.748;2023-05-10T04:22:46;26;26;
64114;PMS5003;62188;35.640;139.748;2023-05-10T04:25:12;27;27;
64114;PMS5003;62188;35.640;139.748;2023-05-10T04:27:37;31;30;
64114;PMS5003;62188;35.640;139.748;2023-05-10T04:30:02;28;26;
64114;PMS5003;62188;35.640;139.748;2023-05-10T04:32:27;29;29;
64114;PMS5003;62188;35.640;139.748;2023-05-10T04:34:53;31;29;
64114;PMS5003;62188;35.640;139.748;2023-05-10T04:37:25;27;24;
64114;PMS5003;62188;35.640;139.748;2023-05-10T04:39:44;26;26;
64114;PMS5003;62188;35.640;139.748;2023-05-10T04:42:12;28;25;
64114;PMS5003;62188;35.640;139.748;2023-05-10T04:44:35;29;28;
64114;PMS5003;62188;35.640;139.748;2023-05-10T04:47:00;29;27;
64114;PMS5003;62188;35.640;139.748;2023-05-10T04:49:28;27;26;
64114;PMS5003;62188;35.640;139.748;2023-05-10T04:51:51;25;25;
64114;PMS5003;62188;35.640;139.748;2023-05-10T04:54:17;30;28;
64114;PMS5003;62188;35.640;139.748;2023-05-10T04:56:42;26;25;
64114;PMS5003;62188;35.640;139.748;2023-05-10T04:59:07;28;28;
64114;PMS5003;62188;35.640;139.748;2023-05-10T05:01:34;27;27;
64114;PMS5003;62188;35.640;139.748;2023-05-10T05:03:58;26;26;
64114;PMS5003;62188;35.640;139.748;2023-05-10T05:06:23;25;25;
64114;PMS5003;62188;35.640;139.748;2023-05-10T05:08:49;28;28;
64114;PMS5003;62188;35.640;139.748;2023-05-10T05:11:15;28;25;
64114;PMS5003;62188;35.640;139.748;2023-05-10T05:13:39;25;25;
64114;PMS5003;62188;35.640;139.748;2023-05-10T05:16:06;28;27;
64114;PMS5003;62188;35.640;139.748;2023-05-10T05:18:31;24;24;
64114;PMS5003;62188;35.640;139.748;2023-05-10T05:20:56;24;23;
64114;PMS5003;62188;35.640;139.748;2023-05-10T05:23:22;26;24;
64114;PMS5003;62188;35.640;139.748;2023-05-10T05:25:47;23;22;
64114;PMS5003;62188;35.640;139.748;2023-05-10T05:28:12;26;26;
64114;PMS5003;62188;35.640;139.748;2023-05-10T05:30:38;24;23;
64114;PMS5003;62188;35.640;139.748;2023-05-10T05:33:03;25;23;
64114;PMS5003;62188;35.640;139.748;2023-05-10T05:35:29;24;23;
64114;PMS5003;62188;35.640;139.748;2023-05-10T05:37:54;24;23;
64114;PMS5003;62188;35.640;139.748;2023-05-10T05:40:26;22;21;
64114;PMS5003;62188;35.640;139.748;2023-05-10T05:42:46;22;22;
64114;PMS5003;62188;35.640;139.748;2023-05-10T05:45:11;24;24;
64114;PMS5003;62188;35.640;139.748;2023-05-10T05:47:36;22;22;
64114;PMS5003;62188;35.640;139.748;2023-05-10T05:50:02;22;22;
64114;PMS5003;62188;35.640;139.748;2023-05-10T05:52:27;27;25;
64114;PMS5003;62188;35.640;139.748;2023-05-10T05:54:53;24;24;
64114;PMS5003;62188;35.640;139.748;2023-05-10T05:57:18;22;22;
64114;PMS5003;62188;35.640;139.748;2023-05-10T05:59:48;25;24;
64114;PMS5003;62188;35.640;139.748;2023-05-10T06:02:15;25;24;
64114;PMS5003;62188;35.640;139.748;2023-05-10T06:04:35;28;28;
64114;PMS5003;62188;35.640;139.748;2023-05-10T06:07:01;25;24;
64114;PMS5003;62188;35.640;139.748;2023-05-10T06:09:27;26;25;
64114;PMS5003;62188;35.640;139.748;2023-05-10T06:11:51;22;22;
64114;PMS5003;62188;35.640;139.748;2023-05-10T06:14:17;22;21;
64114;PMS5003;62188;35.640;139.748;2023-05-10T06:16:43;26;26;
64114;PMS5003;62188;35.640;139.748;2023-05-10T06:19:08;26;25;
64114;PMS5003;62188;35.640;139.748;2023-05-10T06:21:34;24;22;
64114;PMS5003;62188;35.640;139.748;2023-05-10T06:23:59;24;23;
64114;PMS5003;62188;35.640;139.748;2023-05-10T06:26:25;23;22;
64114;PMS5003;62188;35.640;139.748;2023-05-10T06:28:51;22;21;
64114;PMS5003;62188;35.640;139.748;2023-05-10T06:31:16;21;21;
64114;PMS5003;62188;35.640;139.748;2023-05-10T06:33:41;23;23;
64114;PMS5003;62188;35.640;139.748;2023-05-10T06:36:06;27;24;
64114;PMS5003;62188;35.640;139.748;2023-05-10T06:38:32;22;22;
64114;PMS5003;62188;35.640;139.748;2023-05-10T06:40:59;23;23;
64114;PMS5003;62188;35.640;139.748;2023-05-10T06:43:23;26;26;
64114;PMS5003;62188;35.640;139.748;2023-05-10T06:45:48;23;22;
64114;PMS5003;62188;35.640;139.748;2023-05-10T06:48:14;25;25;
64114;PMS5003;62188;35.640;139.748;2023-05-10T06:50:40;21;20;
64114;PMS5003;62188;35.640;139.748;2023-05-10T06:53:05;26;26;
64114;PMS5003;62188;35.640;139.748;2023-05-10T06:55:30;24;24;
64114;PMS5003;62188;35.640;139.748;2023-05-10T06:57:56;24;23;
64114;PMS5003;62188;35.640;139.748;2023-05-10T07:00:21;25;25;
64114;PMS5003;62188;35.640;139.748;2023-05-10T07:02:47;22;22;
64114;PMS5003;62188;35.640;139.748;2023-05-10T07:05:13;26;26;
64114;PMS5003;62188;35.640;139.748;2023-05-10T07:07:38;25;24;
64114;PMS5003;62188;35.640;139.748;2023-05-10T07:10:04;29;27;
64114;PMS5003;62188;35.640;139.748;2023-05-10T07:12:29;28;26;
64114;PMS5003;62188;35.640;139.748;2023-05-10T07:14:55;33;30;
64114;PMS5003;62188;35.640;139.748;2023-05-10T07:17:20;26;26;
64114;PMS5003;62188;35.640;139.748;2023-05-10T07:19:46;29;26;
64114;PMS5003;62188;35.640;139.748;2023-05-10T07:22:11;29;26;
64114;PMS5003;62188;35.640;139.748;2023-05-10T07:24:36;29;28;
64114;PMS5003;62188;35.640;139.748;2023-05-10T07:27:02;34;33;
64114;PMS5003;62188;35.640;139.748;2023-05-10T07:29:27;33;30;
64114;PMS5003;62188;35.640;139.748;2023-05-10T07:31:52;32;29;
64114;PMS5003;62188;35.640;139.748;2023-05-10T07:34:17;30;28;
64114;PMS5003;62188;35.640;139.748;2023-05-10T07:36:43;31;30;
64114;PMS5003;62188;35.640;139.748;2023-05-10T07:39:08;29;29;
64114;PMS5003;62188;35.640;139.748;2023-05-10T07:41:34;32;31;
64114;PMS5003;62188;35.640;139.748;2023-05-10T07:43:59;33;32;
64114;PMS5003;62188;35.640;139.748;2023-05-10T07:46:25;34;32;
64114;PMS5003;62188;35.640;139.748;2023-05-10T07:48:50;34;33;
64114;PMS5003;62188;35.640;139.748;2023-05-10T07:51:15;35;34;
64114;PMS5003;62188;35.640;139.748;2023-05-10T07:53:40;37;32;
64114;PMS5003;62188;35.640;139.748;2023-05-10T07:58:31;33;30;
64114;PMS5003;62188;35.640;139.748;2023-05-10T08:00:57;31;29;
64114;PMS5003;62188;35.640;139.748;2023-05-10T08:03:22;26;26;
64114;PMS5003;62188;35.640;139.748;2023-05-10T08:05:48;35;31;
64114;PMS5003;62188;35.640;139.748;2023-05-10T08:08:13;34;32;
64114;PMS5003;62188;35.640;139.748;2023-05-10T08:10:39;30;30;
64114;PMS5003;62188;35.640;139.748;2023-05-10T08:13:04;30;30;
64114;PMS5003;62188;35.640;139.748;2023-05-10T08:15:30;36;35;
64114;PMS5003;62188;35.640;139.748;2023-05-10T08:17:55;37;36;
64114;PMS5003;62188;35.640;139.748;2023-05-10T08:20:21;37;35;
64114;PMS5003;62188;35.640;139.748;2023-05-10T08:22:46;35;32;
64114;PMS5003;62188;35.640;139.748;2023-05-10T08:25:12;33;33;
64114;PMS5003;62188;35.640;139.748;2023-05-10T08:27:37;29;29;
64114;PMS5003;62188;35.640;139.748;2023-05-10T08:30:03;33;33;
64114;PMS5003;62188;35.640;139.748;2023-05-10T08:32:35;33;32;
64114;PMS5003;62188;35.640;139.748;2023-05-10T08:34:55;35;33;
64114;PMS5003;62188;35.640;139.748;2023-05-10T08:37:20;37;37;
64114;PMS5003;62188;35.640;139.748;2023-05-10T08:39:50;32;31;
64114;PMS5003;62188;35.640;139.748;2023-05-10T08:42:09;37;36;
64114;PMS5003;62188;35.640;139.748;2023-05-10T08:44:35;39;37;
64114;PMS5003;62188;35.640;139.748;2023-05-10T08:47:02;32;31;
64114;PMS5003;62188;35.640;139.748;2023-05-10T08:49:27;33;32;
64114;PMS5003;62188;35.640;139.748;2023-05-10T08:51:54;31;31;
64114;PMS5003;62188;35.640;139.748;2023-05-10T08:54:18;35;33;
64114;PMS5003;62188;35.640;139.748;2023-05-10T08:56:43;33;32;
64114;PMS5003;62188;35.640;139.748;2023-05-10T08:59:08;33;32;
64114;PMS5003;62188;35.640;139.748;2023-05-10T09:01:35;35;34;
64114;PMS5003;62188;35.640;139.748;2023-05-10T09:03:59;31;31;
64114;PMS5003;62188;35.640;139.748;2023-05-10T09:06:25;34;31;
64114;PMS5003;62188;35.640;139.748;2023-05-10T09:08:50;34;30;
64114;PMS5003;62188;35.640;139.748;2023-05-10T09:11:16;36;34;
64114;PMS5003;62188;35.640;139.748;2023-05-10T09:13:41;30;30;
64114;PMS5003;62188;35.640;139.748;2023-05-10T09:16:07;33;32;
64114;PMS5003;62188;35.640;139.748;2023-05-10T09:18:33;31;30;
64114;PMS5003;62188;35.640;139.748;2023-05-10T09:20:58;35;33;
64114;PMS5003;62188;35.640;139.748;2023-05-10T09:23:23;34;33;
64114;PMS5003;62188;35.640;139.748;2023-05-10T09:28:15;34;32;
64114;PMS5003;62188;35.640;139.748;2023-05-10T09:30:40;36;35;
64114;PMS5003;62188;35.640;139.748;2023-05-10T09:33:05;41;39;
64114;PMS5003;62188;35.640;139.748;2023-05-10T09:35:31;43;43;
64114;PMS5003;62188;35.640;139.748;2023-05-10T09:37:57;39;39;
64114;PMS5003;62188;35.640;139.748;2023-05-10T09:40:21;50;44;
64114;PMS5003;62188;35.640;139.748;2023-05-10T09:45:12;37;35;
64114;PMS5003;62188;35.640;139.748;2023-05-10T09:47:38;40;39;
64114;PMS5003;62188;35.640;139.748;2023-05-10T09:50:04;30;29;
64114;PMS5003;62188;35.640;139.748;2023-05-10T09:52:29;32;31;
64114;PMS5003;62188;35.640;139.748;2023-05-10T09:54:53;30;29;
64114;PMS5003;62188;35.640;139.748;2023-05-10T09:57:20;29;28;
64114;PMS5003;62188;35.640;139.748;2023-05-10T09:59:45;30;28;
64114;PMS5003;62188;35.640;139.748;2023-05-10T10:02:11;32;32;
64114;PMS5003;62188;35.640;139.748;2023-05-10T10:04:39;31;30;
64114;PMS5003;62188;35.640;139.748;2023-05-10T10:07:02;33;29;
64114;PMS5003;62188;35.640;139.748;2023-05-10T10:09:27;33;31;
64114;PMS5003;62188;35.640;139.748;2023-05-10T10:11:53;31;28;
64114;PMS5003;62188;35.640;139.748;2023-05-10T10:14:18;29;29;
64114;PMS5003;62188;35.640;139.748;2023-05-10T10:16:44;30;27;
64114;PMS5003;62188;35.640;139.748;2023-05-10T10:19:10;28;27;
64114;PMS5003;62188;35.640;139.748;2023-05-10T10:21:35;27;26;
64114;PMS5003;62188;35.640;139.748;2023-05-10T10:24:01;28;27;
64114;PMS5003;62188;35.640;139.748;2023-05-10T10:26:26;27;26;
64114;PMS5003;62188;35.640;139.748;2023-05-10T10:28:56;27;27;
64114;PMS5003;62188;35.640;139.748;2023-05-10T10:31:23;25;24;
64114;PMS5003;62188;35.640;139.748;2023-05-10T10:36:08;30;26;
64114;PMS5003;62188;35.640;139.748;2023-05-10T10:38:37;28;28;
64114;PMS5003;62188;35.640;139.748;2023-05-10T10:41:02;26;26;
64114;PMS5003;62188;35.640;139.748;2023-05-10T10:43:24;28;26;
64114;PMS5003;62188;35.640;139.748;2023-05-10T10:50:44;24;23;
64114;PMS5003;62188;35.640;139.748;2023-05-10T10:55:33;29;27;
64114;PMS5003;62188;35.640;139.748;2023-05-10T10:57:57;28;27;
64114;PMS5003;62188;35.640;139.748;2023-05-10T11:00:25;23;21;
64114;PMS5003;62188;35.640;139.748;2023-05-10T11:02:48;26;25;
64114;PMS5003;62188;35.640;139.748;2023-05-10T11:10:05;27;25;
64114;PMS5003;62188;35.640;139.748;2023-05-10T11:12:30;32;30;
64114;PMS5003;62188;35.640;139.748;2023-05-10T11:14:57;34;31;
64114;PMS5003;62188;35.640;139.748;2023-05-10T11:17:24;31;28;
64114;PMS5003;62188;35.640;139.748;2023-05-10T11:22:13;27;27;
64114;PMS5003;62188;35.640;139.748;2023-05-10T11:24:37;28;27;
64114;PMS5003;62188;35.640;139.748;2023-05-10T11:27:03;32;30;
64114;PMS5003;62188;35.640;139.748;2023-05-10T11:29:28;29;29;
64114;PMS5003;62188;35.640;139.748;2023-05-10T11:31:56;28;27;
64114;PMS5003;62188;35.640;139.748;2023-05-10T11:34:25;25;22;
64114;PMS5003;62188;35.640;139.748;2023-05-10T11:36:44;24;24;
64114;PMS5003;62188;35.640;139.748;2023-05-10T11:39:10;25;24;
64114;PMS5003;62188;35.640;139.748;2023-05-10T11:41:35;27;27;
64114;PMS5003;62188;35.640;139.748;2023-05-10T11:44:00;30;28;
64114;PMS5003;62188;35.640;139.748;2023-05-10T11:46:26;27;26;
64114;PMS5003;62188;35.640;139.748;2023-05-10T11:48:51;26;26;
64114;PMS5003;62188;35.640;139.748;2023-05-10T11:51:19;24;23;
64114;PMS5003;62188;35.640;139.748;2023-05-10T11:53:42;27;26;
64114;PMS5003;62188;35.640;139.748;2023-05-10T11:56:08;27;26;
64114;PMS5003;62188;35.640;139.748;2023-05-10T11:58:34;32;32;
64114;PMS5003;62188;35.640;139.748;2023-05-10T12:00:59;37;32;
64114;PMS5003;62188;35.640;139.748;2023-05-10T12:03:24;29;29;
64114;PMS5003;62188;35.640;139.748;2023-05-10T12:05:49;25;25;
64114;PMS5003;62188;35.640;139.748;2023-05-10T12:08:15;35;33;
64114;PMS5003;62188;35.640;139.748;2023-05-10T12:10:41;35;33;
64114;PMS5003;62188;35.640;139.748;2023-05-10T12:13:06;28;26;
64114;PMS5003;62188;35.640;139.748;2023-05-10T12:15:33;32;30;
64114;PMS5003;62188;35.640;139.748;2023-05-10T12:17:57;29;28;
64114;PMS5003;62188;35.640;139.748;2023-05-10T12:20:23;37;35;
64114;PMS5003;62188;35.640;139.748;2023-05-10T12:22:48;35;34;
64114;PMS5003;62188;35.640;139.748;2023-05-10T12:25:13;31;29;
64114;PMS5003;62188;35.640;139.748;2023-05-10T12:27:39;36;32;
64114;PMS5003;62188;35.640;139.748;2023-05-10T12:30:05;33;29;
64114;PMS5003;62188;35.640;139.748;2023-05-10T12:32:39;38;36;
64114;PMS5003;62188;35.640;139.748;2023-05-10T12:34:58;37;32;
64114;PMS5003;62188;35.640;139.748;2023-05-10T12:37:24;39;39;
64114;PMS5003;62188;35.640;139.748;2023-05-10T12:39:48;38;35;
64114;PMS5003;62188;35.640;139.748;2023-05-10T12:42:13;46;42;
64114;PMS5003;62188;35.640;139.748;2023-05-10T12:44:38;38;36;
64114;PMS5003;62188;35.640;139.748;2023-05-10T12:47:03;40;36;
64114;PMS5003;62188;35.640;139.748;2023-05-10T12:49:29;39;37;
64114;PMS5003;62188;35.640;139.748;2023-05-10T12:51:55;37;35;
64114;PMS5003;62188;35.640;139.748;2023-05-10T12:54:20;36;35;
64114;PMS5003;62188;35.640;139.748;2023-05-10T12:56:45;43;38;
64114;PMS5003;62188;35.640;139.748;2023-05-10T12:59:11;42;34;
64114;PMS5003;62188;35.640;139.748;2023-05-10T13:01:37;39;35;
64114;PMS5003;62188;35.640;139.748;2023-05-10T13:04:03;43;37;
64114;PMS5003;62188;35.640;139.748;2023-05-10T13:06:29;32;30;
64114;PMS5003;62188;35.640;139.748;2023-05-10T13:08:53;40;34;
64114;PMS5003;62188;35.640;139.748;2023-05-10T13:11:19;30;30;
64114;PMS5003;62188;35.640;139.748;2023-05-10T13:13:44;27;27;
64114;PMS5003;62188;35.640;139.748;2023-05-10T13:16:10;29;27;
64114;PMS5003;62188;35.640;139.748;2023-05-10T13:18:36;28;27;
64114;PMS5003;62188;35.640;139.748;2023-05-10T13:21:01;29;28;
64114;PMS5003;62188;35.640;139.748;2023-05-10T13:23:27;23;22;
64114;PMS5003;62188;35.640;139.748;2023-05-10T13:25:52;26;26;
64114;PMS5003;62188;35.640;139.748;2023-05-10T13:28:18;25;24;
64114;PMS5003;62188;35.640;139.748;2023-05-10T13:30:43;23;23;
64114;PMS5003;62188;35.640;139.748;2023-05-10T13:33:08;23;23;
64114;PMS5003;62188;35.640;139.748;2023-05-10T13:35:34;25;25;
64114;PMS5003;62188;35.640;139.748;2023-05-10T13:38:01;25;24;
64114;PMS5003;62188;35.640;139.748;2023-05-10T13:40:24;23;23;
64114;PMS5003;62188;35.640;139.748;2023-05-10T13:42:50;22;22;
64114;PMS5003;62188;35.640;139.748;2023-05-10T13:45:16;25;24;
64114;PMS5003;62188;35.640;139.748;2023-05-10T13:47:42;28;27;
64114;PMS5003;62188;35.640;139.748;2023-05-10T13:50:07;23;23;
64114;PMS5003;62188;35.640;139.748;2023-05-10T13:52:32;26;26;
64114;PMS5003;62188;35.640;139.748;2023-05-10T13:54:58;24;24;
64114;PMS5003;62188;35.640;139.748;2023-05-10T13:57:26;24;24;
64114;PMS5003;62188;35.640;139.748;2023-05-10T13:59:50;25;24;
64114;PMS5003;62188;35.640;139.748;2023-05-10T14:02:15;25;25;
64114;PMS5003;62188;35.640;139.748;2023-05-10T14:04:40;28;25;
64114;PMS5003;62188;35.640;139.748;2023-05-10T14:07:05;28;27;
64114;PMS5003;62188;35.640;139.748;2023-05-10T14:09:31;21;21;
64114;PMS5003;62188;35.640;139.748;2023-05-10T14:11:56;25;25;
64114;PMS5003;62188;35.640;139.748;2023-05-10T14:14:21;25;25;
64114;PMS5003;62188;35.640;139.748;2023-05-10T14:16:47;22;22;
64114;PMS5003;62188;35.640;139.748;2023-05-10T14:19:12;25;25;
64114;PMS5003;62188;35.640;139.748;2023-05-10T14:21:38;24;24;
64114;PMS5003;62188;35.640;139.748;2023-05-10T14:24:04;22;22;
64114;PMS5003;62188;35.640;139.748;2023-05-10T14:26:29;24;23;
64114;PMS5003;62188;35.640;139.748;2023-05-10T14:28:55;25;24;
64114;PMS5003;62188;35.640;139.748;2023-05-10T14:31:20;28;27;
64114;PMS5003;62188;35.640;139.748;2023-05-10T14:33:46;24;23;
64114;PMS5003;62188;35.640;139.748;2023-05-10T14:36:11;20;19;
64114;PMS5003;62188;35.640;139.748;2023-05-10T14:38:37;27;25;
64114;PMS5003;62188;35.640;139.748;2023-05-10T14:41:02;25;24;
64114;PMS5003;62188;35.640;139.748;2023-05-10T14:43:27;21;21;
64114;PMS5003;62188;35.640;139.748;2023-05-10T14:45:53;24;24;
64114;PMS5003;62188;35.640;139.748;2023-05-10T14:48:19;24;22;
64114;PMS5003;62188;35.640;139.748;2023-05-10T14:50:44;25;22;
64114;PMS5003;62188;35.640;139.748;2023-05-10T14:53:09;27;23;
64114;PMS5003;62188;35.640;139.748;2023-05-10T14:55:35;23;22;
64114;PMS5003;62188;35.640;139.748;2023-05-10T14:58:01;24;22;
64114;PMS5003;62188;35.640;139.748;2023-05-10T15:00:26;24;24;
64114;PMS5003;62188;35.640;139.748;2023-05-10T15:02:52;23;22;
64114;PMS5003;62188;35.640;139.748;2023-05-10T15:05:17;25;24;
64114;PMS5003;62188;35.640;139.748;2023-05-10T15:07:43;25;25;
64114;PMS5003;62188;35.640;139.748;2023-05-10T15:10:09;21;21;
64114;PMS5003;62188;35.640;139.748;2023-05-10T15:12:34;23;22;
64114;PMS5003;62188;35.640;139.748;2023-05-10T15:14:59;23;22;
64114;PMS5003;62188;35.640;139.748;2023-05-10T15:17:25;25;25;
64114;PMS5003;62188;35.640;139.748;2023-05-10T15:19:51;21;20;
64114;PMS5003;62188;35.640;139.748;2023-05-10T15:22:17;24;23;
64114;PMS5003;62188;35.640;139.748;2023-05-10T15:24:42;22;21;
64114;PMS5003;62188;35.640;139.748;2023-05-10T15:27:07;18;18;
64114;PMS5003;62188;35.640;139.748;2023-05-10T15:29:33;22;22;
64114;PMS5003;62188;35.640;139.748;2023-05-10T15:31:58;22;22;
64114;PMS5003;62188;35.640;139.748;2023-05-10T15:34:24;25;24;
64114;PMS5003;62188;35.640;139.748;2023-05-10T15:36:50;25;24;
64114;PMS5003;62188;35.640;139.748;2023-05-10T15:39:15;22;22;
64114;PMS5003;62188;35.640;139.748;2023-05-10T15:41:40;18;18;
64114;PMS5003;62188;35.640;139.748;2023-05-10T15:44:06;23;21;
64114;PMS5003;62188;35.640;139.748;2023-05-10T15:46:31;22;21;
64114;PMS5003;62188;35.640;139.748;2023-05-10T15:48:57;18;17;
64114;PMS5003;62188;35.640;139.748;2023-05-10T15:51:22;18;17;
64114;PMS5003;62188;35.640;139.748;2023-05-10T15:53:48;22;21;
64114;PMS5003;62188;35.640;139.748;2023-05-10T15:56:13;27;24;
64114;PMS5003;62188;35.640;139.748;2023-05-10T15:58:39;21;20;
64114;PMS5003;62188;35.640;139.748;2023-05-10T16:01:04;25;23;
64114;PMS5003;62188;35.640;139.748;2023-05-10T16:03:30;23;23;
64114;PMS5003;62188;35.640;139.748;2023-05-10T16:05:55;22;21;